Time;durP1;ratioP1;P1;durP2;ratioP2;P2;SDS_P1;SDS_P2;PMS_P1;PMS_P2;Temp;Humidity;BMP_temperature;BMP_pressure;BME280_temperature;BME280_humidity;BME280_pressure;Samples;Min_cycle;Max_cycle;Signal;HPM_P1;HPM_P2
2023/06/07 00:01:17;;;;;;;;;15.00;11.67;;;;;;;;6332737;22;28266;-92
2023/06/07 00:03:49;;;;;;;;;12.67;12.67;;;;;;;;6332572;22;29855;-92
2023/06/07 00:06:15;;;;;;;;;16.67;16.33;;;;;;;;6360669;22;43880;-92
2023/06/07 00:08:46;;;;;;;;;12.33;12.33;;;;;;;;6330772;22;45262;-92
2023/06/07 00:11:12;;;;;;;;;14.67;14.67;;;;;;;;6328563;22;45410;-92
2023/06/07 00:13:37;;;;;;;;;15.33;15.00;;;;;;;;6352621;22;45633;-92
2023/06/07 00:16:03;;;;;;;;;14.00;14.00;;;;;;;;6322341;22;35417;-92
2023/06/07 00:18:28;;;;;;;;;16.33;16.33;;;;;;;;6326553;22;28456;-92
2023/06/07 00:20:54;;;;;;;;;18.33;17.67;;;;;;;;6325786;22;35534;-92
2023/06/07 00:23:20;;;;;;;;;15.33;14.67;;;;;;;;6359688;22;46038;-92
2023/06/07 00:25:46;;;;;;;;;16.00;13.00;;;;;;;;6326357;22;45172;-92
2023/06/07 00:28:11;;;;;;;;;15.00;15.00;;;;;;;;6314746;22;45325;-92
2023/06/07 00:30:41;;;;;;;;;16.33;16.33;;;;;;;;6328751;22;44558;-92
2023/06/07 00:33:06;;;;;;;;;14.67;14.67;;;;;;;;6352206;22;45441;-93
2023/06/07 00:35:32;;;;;;;;;14.67;14.67;;;;;;;;6322090;22;45363;-92
2023/06/07 00:37:57;;;;;;;;;12.67;12.67;;;;;;;;6316459;22;45326;-92
2023/06/07 00:40:28;;;;;;;;;16.67;16.00;;;;;;;;6335298;22;28538;-92
2023/06/07 00:42:55;;;;;;;;;12.33;12.33;;;;;;;;6332760;22;30791;-92
2023/06/07 00:45:20;;;;;;;;;14.25;13.50;;;;;;;;6332203;22;42193;-92
2023/06/07 00:47:46;;;;;;;;;15.67;15.67;;;;;;;;6334289;22;28486;-92
2023/06/07 00:50:11;;;;;;;;;16.33;15.33;;;;;;;;6331227;22;44733;-92
2023/06/07 00:52:40;;;;;;;;;10.33;10.00;;;;;;;;6330395;22;44761;-92
2023/06/07 00:55:05;;;;;;;;;13.33;13.00;;;;;;;;6358127;22;43925;-92
2023/06/07 00:57:35;;;;;;;;;18.50;17.50;;;;;;;;6329437;22;44662;-92
2023/06/07 01:00:00;;;;;;;;;16.67;16.67;;;;;;;;6333439;22;28475;-92
2023/06/07 01:02:29;;;;;;;;;15.33;14.67;;;;;;;;6331595;22;44698;-92
2023/06/07 01:04:56;;;;;;;;;19.00;16.67;;;;;;;;6321479;22;45393;-92
2023/06/07 01:07:24;;;;;;;;;15.33;15.33;;;;;;;;6330000;22;44705;-92
2023/06/07 01:09:52;;;;;;;;;14.00;13.67;;;;;;;;6333896;22;28515;-92
2023/06/07 01:12:18;;;;;;;;;18.33;17.33;;;;;;;;6363478;22;28480;-92
2023/06/07 01:14:44;;;;;;;;;17.00;16.67;;;;;;;;6360781;22;45289;-92
2023/06/07 01:17:12;;;;;;;;;15.33;15.33;;;;;;;;6331876;22;45201;-92
2023/06/07 01:19:39;;;;;;;;;18.67;17.00;;;;;;;;6349878;22;45349;-92
2023/06/07 01:22:05;;;;;;;;;22.67;21.33;;;;;;;;6356731;22;45235;-93
2023/06/07 01:24:30;;;;;;;;;14.67;14.67;;;;;;;;6350907;22;45396;-92
2023/06/07 01:27:01;;;;;;;;;16.00;16.00;;;;;;;;6329798;22;44665;-92
2023/06/07 01:29:32;;;;;;;;;16.00;13.00;;;;;;;;6359669;22;44506;-92
2023/06/07 01:32:00;;;;;;;;;15.33;14.67;;;;;;;;6361916;22;28408;-92
2023/06/07 01:34:28;;;;;;;;;17.33;17.33;;;;;;;;6332916;22;28515;-92
2023/06/07 01:36:55;;;;;;;;;17.00;17.00;;;;;;;;6333500;22;28345;-92
2023/06/07 01:39:20;;;;;;;;;14.67;14.67;;;;;;;;6362249;22;28500;-92
2023/06/07 01:41:47;;;;;;;;;19.33;16.33;;;;;;;;6333356;22;29383;-92
2023/06/07 01:44:13;;;;;;;;;16.00;14.00;;;;;;;;6362368;22;28470;-92
2023/06/07 01:46:40;;;;;;;;;19.67;18.33;;;;;;;;6356056;22;44790;-92
2023/06/07 01:49:05;;;;;;;;;16.67;16.67;;;;;;;;6342710;22;45179;-92
2023/06/07 01:51:32;;;;;;;;;22.50;21.50;;;;;;;;6345516;22;46046;-92
2023/06/07 01:53:58;;;;;;;;;19.00;19.00;;;;;;;;6332867;22;29587;-92
2023/06/07 01:56:32;;;;;;;;;15.75;15.75;;;;;;;;6362026;22;38796;-92
2023/06/07 01:58:57;;;;;;;;;16.33;16.33;;;;;;;;6325415;22;45476;-92
2023/06/07 02:01:29;;;;;;;;;18.67;18.67;;;;;;;;6371200;22;36153;-92
2023/06/07 02:03:55;;;;;;;;;18.33;17.67;;;;;;;;6362771;22;28369;-92
2023/06/07 02:06:24;;;;;;;;;22.00;22.00;;;;;;;;6334120;22;28520;-92
2023/06/07 02:08:53;;;;;;;;;20.00;19.67;;;;;;;;6332753;22;28514;-92
2023/06/07 02:11:19;;;;;;;;;19.67;19.67;;;;;;;;6333208;22;28705;-92
2023/06/07 02:13:45;;;;;;;;;20.67;20.67;;;;;;;;6358565;22;44683;-92
2023/06/07 02:16:13;;;;;;;;;16.50;16.50;;;;;;;;6333365;22;42231;-92
2023/06/07 02:18:40;;;;;;;;;21.00;18.67;;;;;;;;6320897;22;45378;-92
2023/06/07 02:21:09;;;;;;;;;21.75;21.75;;;;;;;;6352734;22;45286;-92
2023/06/07 02:23:35;;;;;;;;;18.00;17.50;;;;;;;;6327745;22;45372;-92
2023/06/07 02:26:00;;;;;;;;;19.67;18.33;;;;;;;;6357933;22;45137;-92
2023/06/07 02:28:25;;;;;;;;;20.25;19.75;;;;;;;;6361039;22;44729;-92
2023/06/07 02:30:51;;;;;;;;;19.50;19.50;;;;;;;;6361960;22;28214;-92
2023/06/07 02:33:21;;;;;;;;;25.25;23.25;;;;;;;;6334062;22;28310;-92
2023/06/07 02:35:46;;;;;;;;;20.50;20.50;;;;;;;;6327938;22;45202;-92
2023/06/07 02:38:12;;;;;;;;;21.50;21.50;;;;;;;;6357451;22;45226;-92
2023/06/07 02:40:37;;;;;;;;;18.50;18.50;;;;;;;;6361276;22;28415;-92
2023/06/07 02:43:06;;;;;;;;;22.50;22.50;;;;;;;;6334518;22;28528;-92
2023/06/07 02:45:31;;;;;;;;;19.75;18.75;;;;;;;;6333310;22;28321;-92
2023/06/07 02:47:56;;;;;;;;;22.25;22.25;;;;;;;;6361564;22;42930;-92
2023/06/07 02:50:22;;;;;;;;;22.50;21.50;;;;;;;;6332186;22;47073;-92
2023/06/07 02:52:47;;;;;;;;;23.75;21.75;;;;;;;;6332859;22;28647;-92
2023/06/07 02:55:13;;;;;;;;;24.25;24.25;;;;;;;;6333146;22;28325;-92
2023/06/07 02:57:38;;;;;;;;;18.75;18.75;;;;;;;;6362935;22;28208;-92
2023/06/07 03:00:13;;;;;;;;;16.75;16.25;;;;;;;;6362706;22;28179;-92
2023/06/07 03:02:41;;;;;;;;;19.33;18.00;;;;;;;;6333513;22;44689;-92
2023/06/07 03:05:07;;;;;;;;;20.50;20.50;;;;;;;;6333761;22;28351;-92
2023/06/07 03:07:34;;;;;;;;;18.75;18.25;;;;;;;;6334000;22;28499;-92
2023/06/07 03:10:00;;;;;;;;;23.00;22.50;;;;;;;;6334174;22;30480;-92
2023/06/07 03:12:27;;;;;;;;;20.75;20.75;;;;;;;;6334082;22;28334;-92
2023/06/07 03:14:56;;;;;;;;;16.00;16.00;;;;;;;;6334180;22;28341;-92
2023/06/07 03:17:22;;;;;;;;;20.75;20.50;;;;;;;;6362530;22;28480;-92
2023/06/07 03:19:47;;;;;;;;;23.25;21.25;;;;;;;;6361862;22;42091;-92
2023/06/07 03:22:16;;;;;;;;;21.00;21.00;;;;;;;;6361266;22;44693;-92
2023/06/07 03:24:42;;;;;;;;;18.00;18.00;;;;;;;;6328339;22;45234;-91
2023/06/07 03:27:10;;;;;;;;;25.00;23.75;;;;;;;;6334307;22;28199;-92
2023/06/07 03:29:35;;;;;;;;;23.25;22.25;;;;;;;;6362222;22;28490;-92
2023/06/07 03:32:01;;;;;;;;;26.50;22.50;;;;;;;;6362613;22;28308;-92
2023/06/07 03:34:29;;;;;;;;;24.00;23.50;;;;;;;;6333860;22;28462;-91
2023/06/07 03:36:54;;;;;;;;;25.75;25.75;;;;;;;;6333771;22;28471;-92
2023/06/07 03:39:20;;;;;;;;;25.25;24.75;;;;;;;;6331647;22;46839;-92
2023/06/07 03:41:45;;;;;;;;;26.00;26.00;;;;;;;;6332610;22;44569;-92
2023/06/07 03:44:11;;;;;;;;;29.00;25.75;;;;;;;;6362499;22;28420;-92
2023/06/07 03:46:40;;;;;;;;;27.50;26.25;;;;;;;;6334006;22;28515;-92
2023/06/07 03:49:05;;;;;;;;;28.50;28.50;;;;;;;;6349909;22;45515;-92
2023/06/07 03:51:32;;;;;;;;;27.75;26.75;;;;;;;;6361994;22;28517;-91
2023/06/07 03:53:58;;;;;;;;;26.75;26.75;;;;;;;;6360005;22;28442;-92
2023/06/07 03:56:25;;;;;;;;;24.25;23.50;;;;;;;;6361520;22;28442;-91
2023/06/07 03:58:53;;;;;;;;;28.00;25.25;;;;;;;;6361273;22;38181;-92
2023/06/07 04:01:18;;;;;;;;;26.50;23.75;;;;;;;;6334599;22;28874;-91
2023/06/07 04:03:46;;;;;;;;;22.25;22.00;;;;;;;;6361811;22;42957;-92
2023/06/07 04:06:12;;;;;;;;;27.00;22.25;;;;;;;;6333660;22;38300;-92
2023/06/07 04:08:37;;;;;;;;;24.50;24.50;;;;;;;;6359229;22;42110;-92
2023/06/07 04:11:05;;;;;;;;;25.00;24.50;;;;;;;;6333882;22;42947;-92
2023/06/07 04:13:32;;;;;;;;;26.00;25.75;;;;;;;;6334907;22;28270;-92
2023/06/07 04:15:57;;;;;;;;;27.25;26.25;;;;;;;;6334648;22;28207;-92
2023/06/07 04:18:23;;;;;;;;;20.75;20.75;;;;;;;;6332150;22;38226;-92
2023/06/07 04:20:48;;;;;;;;;26.25;25.25;;;;;;;;6332282;22;28488;-92
2023/06/07 04:23:16;;;;;;;;;24.00;23.50;;;;;;;;6334629;22;28260;-93
2023/06/07 04:25:42;;;;;;;;;26.75;26.75;;;;;;;;6363037;22;28531;-92
2023/06/07 04:28:10;;;;;;;;;26.75;25.25;;;;;;;;6332128;22;42789;-92
2023/06/07 04:30:36;;;;;;;;;28.00;27.25;;;;;;;;6359709;22;44695;-92
2023/06/07 04:33:18;;;;;;;;;24.00;22.75;;;;;;;;6332049;22;42871;-92
2023/06/07 04:35:47;;;;;;;;;23.75;23.75;;;;;;;;6333348;22;36057;-92
2023/06/07 04:38:15;;;;;;;;;24.00;23.00;;;;;;;;6362430;22;28386;-92
2023/06/07 04:40:42;;;;;;;;;24.50;24.50;;;;;;;;6363497;22;28406;-92
2023/06/07 04:43:10;;;;;;;;;27.50;27.50;;;;;;;;6362736;22;44777;-92
2023/06/07 04:45:40;;;;;;;;;25.00;24.00;;;;;;;;6361895;22;45168;-92
2023/06/07 04:48:07;;;;;;;;;27.25;27.25;;;;;;;;6359196;22;45595;-92
2023/06/07 04:50:33;;;;;;;;;20.00;20.00;;;;;;;;6333300;22;45353;-92
2023/06/07 04:53:03;;;;;;;;;22.25;21.75;;;;;;;;6332378;22;45297;-92
2023/06/07 04:55:34;;;;;;;;;24.25;24.25;;;;;;;;6362864;22;28314;-92
2023/06/07 04:57:59;;;;;;;;;24.25;24.25;;;;;;;;6333727;22;29748;-92
2023/06/07 05:00:25;;;;;;;;;21.75;21.75;;;;;;;;6362282;22;28344;-92
2023/06/07 05:02:52;;;;;;;;;28.75;27.25;;;;;;;;6362262;22;28208;-92
2023/06/07 05:05:17;;;;;;;;;23.50;22.50;;;;;;;;6363043;22;28652;-92
2023/06/07 05:07:44;;;;;;;;;19.00;19.00;;;;;;;;6333620;22;29828;-92
2023/06/07 05:10:09;;;;;;;;;22.25;21.50;;;;;;;;6362128;22;28266;-91
2023/06/07 05:12:35;;;;;;;;;22.25;22.00;;;;;;;;6332083;22;45218;-92
2023/06/07 05:15:00;;;;;;;;;26.00;25.75;;;;;;;;6330254;22;44618;-92
2023/06/07 05:17:28;;;;;;;;;18.67;17.67;;;;;;;;6329152;22;47783;-92
2023/06/07 05:20:08;;;;;;;;;25.00;25.00;;;;;;;;6327759;22;45346;-92
2023/06/07 05:22:36;;;;;;;;;18.67;18.67;;;;;;;;6348036;22;45237;-92
2023/06/07 05:25:02;;;;;;;;;21.00;21.00;;;;;;;;6361284;22;42811;-92
2023/06/07 05:27:27;;;;;;;;;22.75;22.00;;;;;;;;6334064;22;29543;-92
2023/06/07 05:29:52;;;;;;;;;19.67;19.67;;;;;;;;6362618;22;28457;-92
2023/06/07 05:32:23;;;;;;;;;22.00;22.00;;;;;;;;6362793;22;42158;-93
2023/06/07 05:34:49;;;;;;;;;18.00;18.00;;;;;;;;6333118;22;44512;-92
2023/06/07 05:37:15;;;;;;;;;22.00;18.33;;;;;;;;6332260;22;42216;-92
2023/06/07 05:39:45;;;;;;;;;14.75;14.00;;;;;;;;6332305;22;40074;-92
2023/06/07 05:42:11;;;;;;;;;20.00;20.00;;;;;;;;6332630;22;44607;-92
2023/06/07 05:44:36;;;;;;;;;22.25;22.25;;;;;;;;6360885;22;42353;-92
2023/06/07 05:47:09;;;;;;;;;18.50;15.25;;;;;;;;6323049;22;45187;-92
2023/06/07 05:49:40;;;;;;;;;19.33;19.33;;;;;;;;6330808;22;44773;-92
2023/06/07 05:52:06;;;;;;;;;22.00;22.00;;;;;;;;6331068;22;45519;-92
2023/06/07 05:54:31;;;;;;;;;16.75;15.25;;;;;;;;6333537;22;44708;-92
2023/06/07 05:56:58;;;;;;;;;20.25;20.25;;;;;;;;6332163;22;42838;-92
2023/06/07 05:59:24;;;;;;;;;19.33;17.33;;;;;;;;6360927;22;42051;-92
2023/06/07 06:01:58;;;;;;;;;18.75;18.75;;;;;;;;6362732;22;28541;-93
2023/06/07 06:04:28;;;;;;;;;21.75;19.75;;;;;;;;6362644;22;28384;-92
2023/06/07 06:06:53;;;;;;;;;21.00;17.75;;;;;;;;6334014;22;30825;-92
2023/06/07 06:09:27;;;;;;;;;21.67;21.67;;;;;;;;6333327;22;35479;-92
2023/06/07 06:12:03;;;;;;;;;;;;;;;;;;;;;
2023/06/07 06:14:29;;;;;;;;;23.75;19.75;;;;;;;;6360132;22;51883;-92
2023/06/07 06:16:57;;;;;;;;;18.33;17.67;;;;;;;;6331238;22;43009;-93
2023/06/07 06:19:22;;;;;;;;;18.33;18.00;;;;;;;;6332311;22;28701;-92
2023/06/07 06:22:01;;;;;;;;;19.00;19.00;;;;;;;;6332865;22;28366;-94
2023/06/07 06:24:26;;;;;;;;;18.33;17.67;;;;;;;;6360463;22;45598;-96
2023/06/07 06:26:51;;;;;;;;;21.67;18.33;;;;;;;;6333010;22;44715;-96
2023/06/07 06:29:17;;;;;;;;;15.67;15.67;;;;;;;;6331509;22;44565;-96
2023/06/07 06:31:43;;;;;;;;;15.00;15.00;;;;;;;;6329477;22;45274;-93
2023/06/07 06:37:38;;;;;;;;;15.67;15.67;;;;;;;;6361938;22;28188;-94
2023/06/07 06:40:05;;;;;;;;;14.33;14.33;;;;;;;;6328175;22;28429;-96
2023/06/07 06:42:31;;;;;;;;;16.33;15.33;;;;;;;;6335707;22;28356;-96
2023/06/07 06:45:22;;;;;;;;;12.33;10.67;;;;;;;;6299510;22;28700;-96
2023/06/07 06:56:09;;;;;;;;;13.33;13.33;;;;;;;;6305936;22;28910;-95
2023/06/07 07:01:56;;;;;;;;;12.67;12.67;;;;;;;;6172436;22;28004;-96
2023/06/07 07:04:21;;;;;;;;;15.33;15.33;;;;;;;;6304163;22;28349;-95
2023/06/07 07:07:15;;;;;;;;;10.33;10.33;;;;;;;;6306412;22;27797;-96
2023/06/07 07:20:13;;;;;;;;;8.33;8.33;;;;;;;;6317195;22;44716;-96
2023/06/07 07:22:38;;;;;;;;;11.33;11.33;;;;;;;;6306773;22;28629;-96
2023/06/07 07:25:10;;;;;;;;;9.67;9.67;;;;;;;;6311703;22;28472;-96
2023/06/07 07:27:41;;;;;;;;;10.67;10.67;;;;;;;;6307722;22;27805;-96
2023/06/07 07:30:11;;;;;;;;;10.67;10.67;;;;;;;;6315871;22;30962;-96
2023/06/07 07:38:19;;;;;;;;;10.67;10.67;;;;;;;;6305461;22;28175;-96
2023/06/07 07:43:20;;;;;;;;;11.33;11.33;;;;;;;;6295604;22;42390;-91
2023/06/07 07:45:45;;;;;;;;;11.67;11.67;;;;;;;;6298214;22;35394;-91
2023/06/07 07:48:10;;;;;;;;;12.00;11.00;;;;;;;;6300446;22;45492;-91
2023/06/07 07:50:38;;;;;;;;;9.67;9.67;;;;;;;;6320216;22;28374;-91
2023/06/07 07:53:03;;;;;;;;;12.33;12.33;;;;;;;;6327958;22;28455;-91
2023/06/07 07:55:28;;;;;;;;;11.00;10.33;;;;;;;;6327383;22;42277;-91
2023/06/07 07:57:54;;;;;;;;;10.67;10.67;;;;;;;;6297662;22;28547;-91
2023/06/07 08:00:20;;;;;;;;;12.33;12.33;;;;;;;;6299752;22;29578;-91
2023/06/07 08:02:46;;;;;;;;;12.00;11.33;;;;;;;;6329755;22;28328;-89
2023/06/07 08:05:11;;;;;;;;;11.00;11.00;;;;;;;;6330279;22;42264;-91
2023/06/07 08:07:37;;;;;;;;;8.67;8.67;;;;;;;;6330605;22;28357;-91
2023/06/07 08:10:02;;;;;;;;;15.33;14.33;;;;;;;;6331522;22;28374;-91
2023/06/07 08:12:27;;;;;;;;;10.33;9.00;;;;;;;;6331544;22;28227;-91
2023/06/07 08:14:52;;;;;;;;;11.33;11.33;;;;;;;;6297693;22;38076;-91
2023/06/07 08:17:19;;;;;;;;;9.33;9.33;;;;;;;;6324499;22;44479;-91
2023/06/07 08:19:45;;;;;;;;;14.67;11.67;;;;;;;;6327964;22;44539;-91
2023/06/07 08:22:10;;;;;;;;;8.00;8.00;;;;;;;;6295718;22;45200;-91
2023/06/07 08:24:35;;;;;;;;;9.67;9.67;;;;;;;;6331911;22;28376;-92
2023/06/07 08:27:00;;;;;;;;;9.67;9.67;;;;;;;;6298110;22;28535;-92
2023/06/07 08:29:26;;;;;;;;;8.33;8.33;;;;;;;;6328880;22;45352;-91
2023/06/07 08:31:53;;;;;;;;;8.00;8.00;;;;;;;;6331023;22;28258;-91
2023/06/07 08:34:20;;;;;;;;;8.00;8.00;;;;;;;;6329934;22;40668;-91
2023/06/07 08:36:45;;;;;;;;;9.67;9.67;;;;;;;;6291626;22;44848;-91
2023/06/07 08:39:10;;;;;;;;;9.33;9.33;;;;;;;;6310707;22;45445;-91
2023/06/07 08:41:35;;;;;;;;;8.33;8.00;;;;;;;;6330145;22;28241;-92
2023/06/07 08:44:00;;;;;;;;;11.00;11.00;;;;;;;;6298015;22;28185;-92
2023/06/07 08:46:30;;;;;;;;;9.00;9.00;;;;;;;;6321213;22;45159;-91
2023/06/07 08:48:55;;;;;;;;;11.33;11.33;;;;;;;;6327755;22;46509;-91
2023/06/07 08:51:21;;;;;;;;;10.00;10.00;;;;;;;;6328901;22;42694;-92
2023/06/07 08:53:48;;;;;;;;;11.67;11.67;;;;;;;;6331567;22;28328;-91
2023/06/07 08:56:15;;;;;;;;;9.00;9.00;;;;;;;;6299678;22;28282;-93
2023/06/07 08:58:40;;;;;;;;;10.67;10.67;;;;;;;;6327145;22;44664;-91
2023/06/07 09:01:07;;;;;;;;;10.67;10.67;;;;;;;;6331018;22;33172;-91
2023/06/07 09:03:33;;;;;;;;;11.33;11.33;;;;;;;;6331130;22;28238;-92
2023/06/07 09:05:58;;;;;;;;;13.33;13.33;;;;;;;;6331303;22;28206;-91
2023/06/07 09:08:23;;;;;;;;;10.33;10.33;;;;;;;;6329653;22;28210;-91
2023/06/07 09:10:48;;;;;;;;;10.33;10.33;;;;;;;;6296500;22;28353;-91
2023/06/07 09:13:19;;;;;;;;;11.67;11.67;;;;;;;;6298886;22;28197;-91
2023/06/07 09:15:47;;;;;;;;;15.00;14.00;;;;;;;;6297883;22;35243;-91
2023/06/07 09:18:12;;;;;;;;;8.33;8.33;;;;;;;;6316024;22;45123;-92
2023/06/07 09:20:37;;;;;;;;;13.67;13.67;;;;;;;;6324238;22;45218;-91
2023/06/07 09:23:03;;;;;;;;;8.67;8.67;;;;;;;;6327752;22;28529;-91
2023/06/07 09:25:28;;;;;;;;;9.33;9.33;;;;;;;;6329669;22;28908;-91
2023/06/07 09:27:54;;;;;;;;;8.00;8.00;;;;;;;;6328650;22;44458;-92
2023/06/07 09:30:20;;;;;;;;;14.67;14.00;;;;;;;;6291993;22;45220;-92
2023/06/07 09:32:45;;;;;;;;;11.00;11.00;;;;;;;;6296238;22;28199;-92
2023/06/07 09:35:11;;;;;;;;;12.00;12.00;;;;;;;;6326777;22;28439;-92
2023/06/07 09:37:44;;;;;;;;;9.33;9.33;;;;;;;;6321265;22;44596;-92
2023/06/07 09:40:10;;;;;;;;;11.33;11.33;;;;;;;;6330033;22;42913;-91
2023/06/07 09:42:35;;;;;;;;;12.00;11.33;;;;;;;;6309636;22;38094;-91
2023/06/07 09:45:09;;;;;;;;;9.67;9.67;;;;;;;;6300004;22;28314;-92
2023/06/07 09:47:35;;;;;;;;;9.67;9.00;;;;;;;;6299396;22;42950;-91
2023/06/07 09:50:10;;;;;;;;;10.67;10.00;;;;;;;;6300095;22;28140;-91
2023/06/07 09:52:35;;;;;;;;;12.00;12.00;;;;;;;;6298441;22;42246;-91
2023/06/07 09:55:03;;;;;;;;;9.00;9.00;;;;;;;;6298929;22;28337;-92
2023/06/07 09:57:32;;;;;;;;;11.33;11.33;;;;;;;;6297499;22;28439;-91
2023/06/07 09:59:58;;;;;;;;;10.33;10.33;;;;;;;;6297431;22;28753;-91
2023/06/07 10:02:25;;;;;;;;;9.00;9.00;;;;;;;;6329687;22;28318;-91
2023/06/07 10:04:52;;;;;;;;;10.67;10.67;;;;;;;;6330404;22;28441;-92
2023/06/07 10:07:18;;;;;;;;;9.67;9.00;;;;;;;;6329705;22;35304;-91
2023/06/07 10:09:45;;;;;;;;;7.67;7.67;;;;;;;;6302046;22;28420;-91
2023/06/07 10:12:11;;;;;;;;;8.33;8.33;;;;;;;;6330147;22;28282;-91
2023/06/07 10:14:38;;;;;;;;;9.00;9.00;;;;;;;;6331602;22;28305;-91
2023/06/07 10:17:05;;;;;;;;;8.33;8.33;;;;;;;;6330608;22;29480;-91
2023/06/07 10:19:30;;;;;;;;;6.67;6.67;;;;;;;;6327330;22;45176;-92
2023/06/07 10:21:57;;;;;;;;;13.00;13.00;;;;;;;;6330433;22;28259;-92
2023/06/07 10:24:30;;;;;;;;;9.67;9.67;;;;;;;;6329820;22;28330;-91
2023/06/07 10:27:13;;;;;;;;;8.67;8.67;;;;;;;;6302390;22;30615;-91
2023/06/07 10:29:45;;;;;;;;;7.33;7.33;;;;;;;;6328049;22;28954;-91
2023/06/07 10:32:14;;;;;;;;;7.00;7.00;;;;;;;;6327830;22;28438;-92
2023/06/07 10:34:40;;;;;;;;;5.00;5.00;;;;;;;;6301378;22;28485;-91
2023/06/07 10:37:08;;;;;;;;;7.33;7.33;;;;;;;;6329601;22;28702;-92
2023/06/07 10:39:34;;;;;;;;;8.67;8.67;;;;;;;;6302930;22;29798;-92
2023/06/07 10:42:00;;;;;;;;;9.00;9.00;;;;;;;;6330137;22;28379;-92
2023/06/07 10:44:25;;;;;;;;;7.33;7.33;;;;;;;;6331406;22;28318;-91
2023/06/07 10:47:10;;;;;;;;;7.33;7.33;;;;;;;;6330588;22;28380;-91
2023/06/07 10:49:39;;;;;;;;;8.00;8.00;;;;;;;;6330492;22;28467;-92
2023/06/07 10:52:05;;;;;;;;;8.00;8.00;;;;;;;;6317578;22;45243;-91
2023/06/07 10:54:35;;;;;;;;;7.00;7.00;;;;;;;;6314628;22;45485;-92
2023/06/07 10:57:02;;;;;;;;;7.00;7.00;;;;;;;;6331097;22;29121;-92
2023/06/07 10:59:27;;;;;;;;;12.00;12.00;;;;;;;;6303091;22;28255;-92
2023/06/07 11:01:54;;;;;;;;;8.00;8.00;;;;;;;;6306399;22;524707;-92
2023/06/07 11:04:33;;;;;;;;;7.33;7.33;;;;;;;;6330637;22;44732;-91
2023/06/07 11:07:18;;;;;;;;;7.33;7.33;;;;;;;;6301244;22;29936;-92
2023/06/07 11:09:43;;;;;;;;;7.67;7.67;;;;;;;;6330682;22;28321;-92
2023/06/07 11:12:09;;;;;;;;;8.67;8.67;;;;;;;;6331257;22;28373;-92
2023/06/07 11:14:34;;;;;;;;;8.00;8.00;;;;;;;;6331253;22;28404;-92
2023/06/07 11:16:59;;;;;;;;;6.33;6.33;;;;;;;;6329908;22;28380;-91
2023/06/07 11:19:45;;;;;;;;;7.33;7.33;;;;;;;;6330785;22;28297;-92
2023/06/07 11:22:15;;;;;;;;;5.33;5.33;;;;;;;;6302297;22;28449;-92
2023/06/07 11:24:41;;;;;;;;;5.00;5.00;;;;;;;;6331330;22;28493;-96
2023/06/07 11:27:10;;;;;;;;;8.33;8.33;;;;;;;;6332727;22;29090;-96
2023/06/07 11:29:36;;;;;;;;;7.33;7.33;;;;;;;;6302506;22;28720;-93
2023/06/07 11:32:02;;;;;;;;;7.00;7.00;;;;;;;;6334450;22;28238;-96
2023/06/07 11:34:29;;;;;;;;;7.33;7.33;;;;;;;;6279927;22;28437;-96
2023/06/07 11:37:08;;;;;;;;;7.00;7.00;;;;;;;;6303210;22;29623;-96
2023/06/07 11:39:33;;;;;;;;;5.00;5.00;;;;;;;;6327147;22;45214;-94
2023/06/07 11:41:58;;;;;;;;;7.00;7.00;;;;;;;;6316276;22;44712;-94
2023/06/07 11:44:26;;;;;;;;;6.67;6.00;;;;;;;;6317009;22;45535;-96
2023/06/07 11:46:52;;;;;;;;;6.33;6.33;;;;;;;;6329265;22;42285;-92
2023/06/07 11:49:17;;;;;;;;;8.00;8.00;;;;;;;;6329884;22;28246;-96
2023/06/07 11:51:48;;;;;;;;;5.33;5.33;;;;;;;;6302196;22;28251;-91
2023/06/07 11:54:13;;;;;;;;;6.33;6.33;;;;;;;;6302177;22;28536;-92
2023/06/07 11:56:41;;;;;;;;;6.33;6.33;;;;;;;;6330164;22;28369;-93
2023/06/07 11:59:08;;;;;;;;;8.33;8.33;;;;;;;;6329910;22;28404;-90
2023/06/07 12:01:33;;;;;;;;;8.67;8.67;;;;;;;;6330524;22;28252;-93
2023/06/07 12:03:58;;;;;;;;;6.33;6.33;;;;;;;;6302480;22;28187;-92
2023/06/07 12:06:27;;;;;;;;;9.00;9.00;;;;;;;;6329656;22;28331;-91
2023/06/07 12:08:52;;;;;;;;;5.67;5.67;;;;;;;;6329608;22;28346;-91
2023/06/07 12:11:23;;;;;;;;;6.33;6.33;;;;;;;;6330398;22;28342;-91
2023/06/07 12:13:53;;;;;;;;;7.00;7.00;;;;;;;;6328792;22;44511;-91
2023/06/07 12:16:20;;;;;;;;;7.00;7.00;;;;;;;;6329673;22;28657;-92
2023/06/07 12:18:45;;;;;;;;;7.00;7.00;;;;;;;;6330928;22;28438;-91
2023/06/07 12:21:11;;;;;;;;;6.00;6.00;;;;;;;;6331962;22;28346;-91
2023/06/07 12:23:38;;;;;;;;;8.00;8.00;;;;;;;;6332122;22;28183;-92
2023/06/07 12:26:17;;;;;;;;;7.00;7.00;;;;;;;;6331217;22;44368;-92
2023/06/07 12:28:43;;;;;;;;;7.00;7.00;;;;;;;;6331378;22;28553;-92
2023/06/07 12:31:20;;;;;;;;;6.33;6.33;;;;;;;;6301675;22;28393;-91
2023/06/07 12:33:53;;;;;;;;;7.00;7.00;;;;;;;;6304132;22;28373;-92
2023/06/07 12:36:18;;;;;;;;;7.00;7.00;;;;;;;;6303350;22;30678;-91
2023/06/07 12:38:43;;;;;;;;;7.67;7.67;;;;;;;;6330003;22;28249;-93
2023/06/07 12:41:08;;;;;;;;;7.00;7.00;;;;;;;;6303248;22;28196;-93
2023/06/07 12:43:34;;;;;;;;;10.00;10.00;;;;;;;;6310325;22;28536;-90
2023/06/07 12:45:59;;;;;;;;;10.00;9.00;;;;;;;;6303405;22;29267;-91
2023/06/07 12:48:25;;;;;;;;;6.33;6.33;;;;;;;;6331264;22;38145;-91
2023/06/07 12:50:50;;;;;;;;;5.33;5.33;;;;;;;;6303134;22;28553;-92
2023/06/07 12:53:15;;;;;;;;;9.33;9.33;;;;;;;;6331785;22;28345;-93
2023/06/07 12:55:40;;;;;;;;;8.33;8.33;;;;;;;;6331806;22;28277;-92
2023/06/07 12:58:06;;;;;;;;;7.67;7.67;;;;;;;;6331916;22;28410;-91
2023/06/07 13:00:31;;;;;;;;;7.33;7.33;;;;;;;;6302430;22;38186;-92
2023/06/07 13:02:57;;;;;;;;;7.67;7.67;;;;;;;;6331759;22;28164;-90
2023/06/07 13:05:22;;;;;;;;;11.33;11.33;;;;;;;;6331632;22;29633;-91
2023/06/07 13:07:47;;;;;;;;;9.00;9.00;;;;;;;;6331321;22;28282;-92
2023/06/07 13:10:13;;;;;;;;;9.00;9.00;;;;;;;;6331635;22;28220;-90
2023/06/07 13:12:38;;;;;;;;;10.67;10.33;;;;;;;;6331117;22;28230;-90
2023/06/07 13:15:04;;;;;;;;;10.33;9.33;;;;;;;;6331720;22;28284;-90
2023/06/07 13:17:30;;;;;;;;;9.33;9.33;;;;;;;;6331414;22;28270;-91
2023/06/07 13:19:56;;;;;;;;;10.00;10.00;;;;;;;;6330799;22;28483;-91
2023/06/07 13:22:21;;;;;;;;;9.00;9.00;;;;;;;;6330837;22;28368;-90
2023/06/07 13:24:47;;;;;;;;;9.00;9.00;;;;;;;;6330047;22;28384;-92
2023/06/07 13:27:12;;;;;;;;;9.00;9.00;;;;;;;;6330449;22;28352;-90
2023/06/07 13:29:38;;;;;;;;;8.00;8.00;;;;;;;;6331394;22;28409;-91
2023/06/07 13:32:03;;;;;;;;;9.00;9.00;;;;;;;;6331493;22;28389;-88
2023/06/07 13:34:28;;;;;;;;;9.00;9.00;;;;;;;;6330502;22;28420;-91
2023/06/07 13:36:54;;;;;;;;;11.67;11.67;;;;;;;;6329616;22;28706;-89
2023/06/07 13:39:19;;;;;;;;;9.33;9.33;;;;;;;;6331343;22;28266;-90
2023/06/07 13:41:45;;;;;;;;;13.33;13.33;;;;;;;;6331077;22;28325;-90
2023/06/07 13:44:10;;;;;;;;;12.00;12.00;;;;;;;;6303109;22;30668;-90
2023/06/07 13:46:36;;;;;;;;;11.67;11.67;;;;;;;;6331868;22;28330;-90
2023/06/07 13:49:01;;;;;;;;;10.67;10.67;;;;;;;;6303298;22;28503;-90
2023/06/07 13:51:27;;;;;;;;;9.67;9.67;;;;;;;;6329034;22;28278;-90
2023/06/07 13:53:52;;;;;;;;;11.67;11.67;;;;;;;;6329262;22;28321;-90
2023/06/07 13:56:18;;;;;;;;;13.33;13.33;;;;;;;;6330997;22;28371;-90
2023/06/07 13:58:43;;;;;;;;;9.00;9.00;;;;;;;;6329849;22;28249;-91
2023/06/07 14:01:08;;;;;;;;;12.67;12.67;;;;;;;;6301800;22;38243;-90
2023/06/07 14:03:34;;;;;;;;;13.67;13.67;;;;;;;;6321986;22;44624;-90
2023/06/07 14:05:59;;;;;;;;;14.33;14.33;;;;;;;;6327163;22;28709;-90
2023/06/07 14:08:25;;;;;;;;;10.33;10.33;;;;;;;;6328228;22;42257;-90
2023/06/07 14:10:50;;;;;;;;;11.33;11.33;;;;;;;;6302557;22;28238;-90
2023/06/07 14:13:16;;;;;;;;;11.33;11.33;;;;;;;;6301834;22;42190;-90
2023/06/07 14:15:41;;;;;;;;;11.67;11.67;;;;;;;;6328113;22;28332;-90
2023/06/07 14:18:07;;;;;;;;;11.00;11.00;;;;;;;;6299925;22;28405;-90
2023/06/07 14:20:32;;;;;;;;;10.00;10.00;;;;;;;;6327631;22;28434;-90
2023/06/07 14:22:57;;;;;;;;;13.67;13.67;;;;;;;;6329479;22;29785;-92
2023/06/07 14:25:23;;;;;;;;;11.33;11.33;;;;;;;;6302435;22;28668;-90
2023/06/07 14:27:48;;;;;;;;;11.67;11.67;;;;;;;;6300299;22;42774;-90
2023/06/07 14:30:15;;;;;;;;;11.67;10.00;;;;;;;;6330921;22;28267;-90
2023/06/07 14:32:40;;;;;;;;;10.33;10.33;;;;;;;;6330278;22;28469;-90
2023/06/07 14:35:06;;;;;;;;;11.33;11.33;;;;;;;;6302641;22;28339;-90
2023/06/07 14:37:31;;;;;;;;;10.00;10.00;;;;;;;;6329660;22;28484;-90
2023/06/07 14:39:56;;;;;;;;;10.00;10.00;;;;;;;;6301683;22;28645;-90
2023/06/07 14:42:24;;;;;;;;;11.33;11.33;;;;;;;;6329151;22;28254;-90
2023/06/07 14:44:50;;;;;;;;;7.00;7.00;;;;;;;;6330146;22;28316;-90
2023/06/07 14:47:15;;;;;;;;;11.00;10.00;;;;;;;;6302537;22;28311;-90
2023/06/07 14:49:40;;;;;;;;;10.67;10.67;;;;;;;;6330781;22;28329;-90
2023/06/07 14:52:05;;;;;;;;;8.33;8.33;;;;;;;;6330145;22;28191;-90
2023/06/07 14:54:31;;;;;;;;;11.00;9.33;;;;;;;;6330169;22;28267;-91
2023/06/07 14:56:56;;;;;;;;;11.33;11.33;;;;;;;;6330659;22;28258;-90
2023/06/07 14:59:21;;;;;;;;;9.00;9.00;;;;;;;;6330541;22;28373;-90